Time;durP1;ratioP1;P1;durP2;ratioP2;P2;SDS_P1;SDS_P2;PMS_P1;PMS_P2;Temp;Humidity;BMP_temperature;BMP_pressure;BME280_temperature;BME280_humidity;BME280_pressure;Samples;Min_cycle;Max_cycle;Signal;HPM_P1;HPM_P2
2021/03/13 00:01:12;;;;;;;0.85;0.40;;;7.00;99.90;;;;;;5093290;28;20213;-71
2021/03/13 00:03:40;;;;;;;0.80;0.40;;;7.10;99.90;;;;;;5093719;28;20743;-71
2021/03/13 00:06:06;;;;;;;2.05;0.82;;;7.00;99.90;;;;;;5093619;28;20233;-71
2021/03/13 00:08:35;;;;;;;0.93;0.60;;;7.00;99.90;;;;;;5093662;28;20212;-71
2021/03/13 00:11:01;;;;;;;3.15;0.77;;;7.00;99.90;;;;;;5093550;28;20240;-73
2021/03/13 00:13:28;;;;;;;0.70;0.70;;;7.00;99.90;;;;;;5093485;28;20226;-73
2021/03/13 00:15:54;;;;;;;0.73;0.55;;;7.10;99.90;;;;;;5093282;28;20292;-74
2021/03/13 00:18:21;;;;;;;0.50;0.50;;;7.10;99.90;;;;;;5093667;28;20218;-74
2021/03/13 00:20:48;;;;;;;0.90;0.63;;;7.10;99.90;;;;;;5093341;28;20297;-73
2021/03/13 00:23:15;;;;;;;1.73;0.70;;;7.30;99.90;;;;;;5093566;28;20320;-74
2021/03/13 00:25:41;;;;;;;0.55;0.55;;;7.30;99.90;;;;;;5093388;28;20208;-74
2021/03/13 00:28:09;;;;;;;2.40;0.90;;;7.30;99.90;;;;;;5093319;28;20202;-77
2021/03/13 00:30:37;;;;;;;1.27;0.73;;;7.40;99.90;;;;;;5094231;28;20198;-78
2021/03/13 00:33:05;;;;;;;0.63;0.60;;;7.40;99.90;;;;;;5093891;28;20226;-77
2021/03/13 00:35:32;;;;;;;1.27;0.77;;;7.40;99.90;;;;;;5093784;28;20568;-74
2021/03/13 00:38:01;;;;;;;1.23;0.95;;;7.40;99.90;;;;;;5093118;28;20657;-73
2021/03/13 00:40:29;;;;;;;0.77;0.65;;;7.40;99.90;;;;;;5093004;28;20293;-73
2021/03/13 00:42:56;;;;;;;0.60;0.60;;;7.40;99.90;;;;;;5093233;28;20810;-73
2021/03/13 00:45:24;;;;;;;0.73;0.70;;;7.40;99.90;;;;;;5092969;28;20259;-72
2021/03/13 00:47:52;;;;;;;1.17;0.80;;;7.30;99.90;;;;;;5092712;28;20229;-72
2021/03/13 00:50:21;;;;;;;1.10;0.73;;;7.30;99.90;;;;;;5092828;28;20208;-71
2021/03/13 00:52:49;;;;;;;0.68;0.60;;;7.20;99.90;;;;;;5093043;28;20218;-71
2021/03/13 00:55:16;;;;;;;0.50;0.45;;;7.20;99.90;;;;;;5092884;28;20252;-71
2021/03/13 00:57:42;;;;;;;0.50;0.38;;;7.20;99.90;;;;;;5092428;28;20217;-71
2021/03/13 01:00:11;;;;;;;1.00;0.63;;;7.10;99.90;;;;;;5092824;28;20210;-72
2021/03/13 01:02:38;;;;;;;0.77;0.50;;;7.10;99.90;;;;;;5092919;28;20229;-71
2021/03/13 01:05:05;;;;;;;1.20;0.50;;;7.10;99.90;;;;;;5092808;28;20213;-71
2021/03/13 01:07:32;;;;;;;0.50;0.40;;;7.10;99.90;;;;;;5092682;28;20204;-71
2021/03/13 01:09:58;;;;;;;0.43;0.35;;;7.10;99.90;;;;;;5092510;28;20202;-71
2021/03/13 01:12:25;;;;;;;0.68;0.40;;;7.10;99.90;;;;;;5091915;28;20236;-71
2021/03/13 01:14:55;;;;;;;0.50;0.40;;;7.10;99.90;;;;;;5092635;28;20293;-72
2021/03/13 01:17:21;;;;;;;0.40;0.30;;;7.00;99.90;;;;;;5092510;28;20225;-72
2021/03/13 01:19:47;;;;;;;2.95;0.35;;;7.00;99.90;;;;;;5092530;28;20293;-72
2021/03/13 01:22:14;;;;;;;0.30;0.30;;;6.90;99.90;;;;;;5092643;28;20218;-72
2021/03/13 01:24:41;;;;;;;0.30;0.20;;;6.80;99.90;;;;;;5092671;28;20236;-73
2021/03/13 01:27:08;;;;;;;1.08;0.40;;;6.80;99.90;;;;;;5091993;28;20220;-72
2021/03/13 01:29:36;;;;;;;0.60;0.40;;;6.80;99.90;;;;;;5092518;28;20229;-75
2021/03/13 01:32:03;;;;;;;2.58;0.40;;;6.80;99.90;;;;;;5092382;28;20294;-73
2021/03/13 01:34:30;;;;;;;0.40;0.30;;;6.80;99.90;;;;;;5092534;28;20624;-74
2021/03/13 01:36:57;;;;;;;0.40;0.30;;;6.80;99.90;;;;;;5092136;28;20216;-72
2021/03/13 01:39:23;;;;;;;0.40;0.40;;;6.80;99.90;;;;;;5092414;28;20202;-77
2021/03/13 01:41:49;;;;;;;0.30;0.30;;;6.80;99.90;;;;;;5092393;28;20317;-77
2021/03/13 01:44:16;;;;;;;0.60;0.50;;;6.90;99.90;;;;;;5092361;28;20297;-76
2021/03/13 01:46:43;;;;;;;0.60;0.50;;;6.90;99.90;;;;;;5092265;28;20198;-73
2021/03/13 01:49:17;;;;;;;0.50;0.47;;;6.80;99.90;;;;;;5092287;28;20230;-72
2021/03/13 01:51:44;;;;;;;0.40;0.40;;;6.70;99.90;;;;;;5091740;28;20230;-72
2021/03/13 01:54:10;;;;;;;0.95;0.50;;;6.70;99.90;;;;;;5091817;28;20289;-72
2021/03/13 01:56:39;;;;;;;1.10;0.70;;;6.60;99.90;;;;;;5092021;28;20198;-72
2021/03/13 01:59:05;;;;;;;0.73;0.55;;;6.60;99.90;;;;;;5092084;28;20217;-72
2021/03/13 02:01:31;;;;;;;0.55;0.55;;;6.50;99.90;;;;;;5091850;28;20222;-73
2021/03/13 02:03:59;;;;;;;1.10;0.55;;;6.40;99.90;;;;;;5091816;28;20298;-72
2021/03/13 02:06:26;;;;;;;0.70;0.70;;;6.40;99.90;;;;;;5091633;28;20202;-72
2021/03/13 02:09:00;;;;;;;0.50;0.50;;;6.30;99.90;;;;;;5091986;28;20209;-72
2021/03/13 02:11:36;;;;;;;0.45;0.45;;;6.30;99.90;;;;;;5091924;28;20590;-71
2021/03/13 02:14:11;;;;;;;1.65;0.98;;;6.30;99.90;;;;;;5091902;28;20247;-73
2021/03/13 02:16:45;;;;;;;0.80;0.80;;;6.30;99.90;;;;;;5091915;28;20304;-72
2021/03/13 02:19:37;;;;;;;1.38;0.73;;;6.20;99.90;;;;;;5091929;28;20313;-72
2021/03/13 02:22:06;;;;;;;0.90;0.80;;;6.20;99.90;;;;;;5091427;28;20225;-71
2021/03/13 02:24:53;;;;;;;0.60;0.60;;;6.10;99.90;;;;;;5092624;28;20250;-71
2021/03/13 02:27:21;;;;;;;0.70;0.70;;;6.20;99.90;;;;;;5095121;28;20668;-72
2021/03/13 02:29:50;;;;;;;1.38;0.68;;;6.30;99.90;;;;;;5095572;28;20202;-73
2021/03/13 02:32:28;;;;;;;0.88;0.80;;;6.30;99.90;;;;;;5094752;28;20320;-71
2021/03/13 02:35:00;;;;;;;2.45;0.70;;;6.20;99.90;;;;;;5095162;28;20206;-72
2021/03/13 02:37:30;;;;;;;0.90;0.90;;;6.20;99.90;;;;;;5094922;28;20688;-72
2021/03/13 02:39:59;;;;;;;0.80;0.80;;;6.30;99.90;;;;;;5095028;28;20202;-72
2021/03/13 02:42:26;;;;;;;1.02;0.73;;;6.40;99.90;;;;;;5095009;28;20226;-72
2021/03/13 02:44:54;;;;;;;1.15;0.95;;;6.40;99.90;;;;;;5094822;28;20214;-72
2021/03/13 02:47:22;;;;;;;2.60;1.00;;;6.40;99.90;;;;;;5094943;28;20552;-72
2021/03/13 02:49:50;;;;;;;3.10;0.90;;;6.50;99.90;;;;;;5094970;28;20608;-72
2021/03/13 02:52:18;;;;;;;1.20;1.08;;;6.50;99.90;;;;;;5094440;28;20265;-72
2021/03/13 02:54:47;;;;;;;1.60;0.80;;;6.50;99.90;;;;;;5094571;28;20212;-77
2021/03/13 02:57:15;;;;;;;1.25;1.15;;;6.50;99.90;;;;;;5089547;28;20366;-76
2021/03/13 02:59:43;;;;;;;0.85;0.75;;;6.50;99.90;;;;;;5085690;28;20194;-73
2021/03/13 03:02:12;;;;;;;2.22;1.02;;;6.50;99.90;;;;;;5082794;28;20301;-74
2021/03/13 03:04:40;;;;;;;0.82;0.82;;;6.60;99.90;;;;;;5085315;28;20201;-74
2021/03/13 03:07:08;;;;;;;1.42;0.85;;;6.70;99.90;;;;;;5083402;28;20190;-74
2021/03/13 03:09:35;;;;;;;4.35;0.80;;;6.80;99.90;;;;;;5084461;28;20194;-75
2021/03/13 03:12:03;;;;;;;2.00;0.85;;;6.90;99.90;;;;;;5086180;28;20261;-71
2021/03/13 03:14:30;;;;;;;1.70;0.60;;;6.90;99.90;;;;;;5085538;28;20193;-71
2021/03/13 03:17:00;;;;;;;1.17;0.80;;;6.90;99.90;;;;;;5085435;28;20195;-70
2021/03/13 03:19:28;;;;;;;1.30;0.80;;;6.90;99.90;;;;;;5083885;28;20649;-70
2021/03/13 03:21:55;;;;;;;1.20;1.10;;;7.00;99.90;;;;;;5083690;28;20309;-71
2021/03/13 03:24:22;;;;;;;4.50;1.05;;;7.00;99.90;;;;;;5083687;28;20653;-71
2021/03/13 03:26:49;;;;;;;2.20;0.95;;;7.00;99.90;;;;;;5083787;28;20201;-70
2021/03/13 03:29:15;;;;;;;1.17;1.10;;;7.00;99.90;;;;;;5093706;28;20357;-71
2021/03/13 03:31:42;;;;;;;1.30;0.80;;;7.00;99.90;;;;;;5096272;28;20228;-71
2021/03/13 03:34:08;;;;;;;0.45;0.45;;;7.00;99.90;;;;;;5096015;28;20229;-71
2021/03/13 03:36:35;;;;;;;2.83;0.80;;;7.00;99.90;;;;;;5095491;28;20553;-70
2021/03/13 03:39:02;;;;;;;1.08;0.85;;;7.10;99.90;;;;;;5095572;28;20636;-71
2021/03/13 03:41:32;;;;;;;0.93;0.80;;;7.10;99.90;;;;;;5095663;28;20229;-71
2021/03/13 03:44:03;;;;;;;1.10;0.90;;;7.20;99.90;;;;;;5096150;28;20236;-71
2021/03/13 03:46:33;;;;;;;0.80;0.80;;;7.20;99.90;;;;;;5096275;28;20213;-71
2021/03/13 03:49:03;;;;;;;1.17;0.85;;;7.30;99.90;;;;;;5096452;28;20534;-71
2021/03/13 03:51:30;;;;;;;1.23;0.70;;;7.30;99.90;;;;;;5096304;28;20222;-70
2021/03/13 03:54:00;;;;;;;1.15;0.80;;;7.40;99.90;;;;;;5096509;28;20205;-71
2021/03/13 03:56:27;;;;;;;2.80;0.95;;;7.40;99.90;;;;;;5096094;28;20237;-70
2021/03/13 03:58:55;;;;;;;0.80;0.80;;;7.40;99.90;;;;;;5095803;28;20725;-71
2021/03/13 04:01:24;;;;;;;3.15;1.15;;;7.40;99.90;;;;;;5096155;28;20210;-70
2021/03/13 04:03:53;;;;;;;1.85;0.90;;;7.50;99.90;;;;;;5096161;28;20202;-71
2021/03/13 04:06:20;;;;;;;0.73;0.73;;;7.50;99.90;;;;;;5096139;28;20217;-71
2021/03/13 04:08:50;;;;;;;0.73;0.73;;;7.50;99.90;;;;;;5096127;28;20670;-71
2021/03/13 04:11:19;;;;;;;0.55;0.55;;;7.50;99.90;;;;;;5096520;28;20216;-71
2021/03/13 04:13:47;;;;;;;1.45;0.73;;;7.50;99.90;;;;;;5096252;28;20307;-71
2021/03/13 04:16:15;;;;;;;1.05;0.50;;;7.50;99.90;;;;;;5095435;28;20286;-70
2021/03/13 04:18:41;;;;;;;0.70;0.55;;;7.60;99.90;;;;;;5095852;28;20236;-71
2021/03/13 04:21:08;;;;;;;0.85;0.70;;;7.60;99.90;;;;;;5095887;28;20202;-71
2021/03/13 04:23:37;;;;;;;1.85;1.00;;;7.60;99.90;;;;;;5095821;28;20293;-71
2021/03/13 04:26:04;;;;;;;0.88;0.75;;;7.70;99.90;;;;;;5095124;28;20198;-70
2021/03/13 04:28:32;;;;;;;0.88;0.60;;;7.70;99.90;;;;;;5094969;28;20649;-71
2021/03/13 04:30:59;;;;;;;3.00;0.90;;;7.80;99.90;;;;;;5095588;28;20202;-71
2021/03/13 04:33:25;;;;;;;4.15;0.80;;;7.80;99.90;;;;;;5095995;28;20222;-71
2021/03/13 04:35:53;;;;;;;2.40;1.60;;;7.80;99.90;;;;;;5096182;28;20335;-71
2021/03/13 04:38:22;;;;;;;1.27;0.65;;;7.80;99.90;;;;;;5095811;28;20274;-71
2021/03/13 04:40:49;;;;;;;0.52;0.52;;;7.80;99.90;;;;;;5095660;28;20545;-71
2021/03/13 04:43:17;;;;;;;1.10;0.95;;;7.90;99.90;;;;;;5095427;28;20228;-70
2021/03/13 04:45:45;;;;;;;0.60;0.40;;;7.90;99.90;;;;;;5094575;28;20213;-70
2021/03/13 04:48:12;;;;;;;1.23;0.50;;;7.90;99.90;;;;;;5093790;28;20566;-71
2021/03/13 04:50:39;;;;;;;0.68;0.57;;;7.90;99.90;;;;;;5095016;28;20201;-71
2021/03/13 04:53:06;;;;;;;0.82;0.65;;;7.90;99.90;;;;;;5094187;28;20594;-70
2021/03/13 04:55:33;;;;;;;0.50;0.50;;;7.90;99.90;;;;;;5094625;28;20198;-71
2021/03/13 04:57:59;;;;;;;1.42;1.33;;;7.90;99.90;;;;;;5094226;28;20717;-70
2021/03/13 05:00:26;;;;;;;0.68;0.60;;;7.90;99.90;;;;;;5094444;28;20241;-70
2021/03/13 05:02:53;;;;;;;1.38;0.43;;;7.90;99.90;;;;;;5094517;28;20229;-71
2021/03/13 05:05:19;;;;;;;0.50;0.45;;;7.90;99.90;;;;;;5094905;28;20288;-71
2021/03/13 05:07:45;;;;;;;0.95;0.60;;;7.90;99.90;;;;;;5094905;28;20201;-70
2021/03/13 05:10:12;;;;;;;1.63;0.40;;;7.90;99.90;;;;;;5094287;28;20672;-71
2021/03/13 05:12:39;;;;;;;1.98;0.45;;;8.00;99.90;;;;;;5094783;28;20633;-71
2021/03/13 05:15:07;;;;;;;0.75;0.60;;;8.00;99.90;;;;;;5094453;28;20202;-71
2021/03/13 05:17:34;;;;;;;0.65;0.60;;;8.00;99.90;;;;;;5094462;28;20342;-70
2021/03/13 05:20:01;;;;;;;0.60;0.47;;;8.10;99.90;;;;;;5094491;28;20209;-70
2021/03/13 05:22:27;;;;;;;0.40;0.40;;;8.10;99.90;;;;;;5094290;28;20270;-70
2021/03/13 05:24:53;;;;;;;1.17;0.60;;;8.10;99.90;;;;;;5095193;28;20296;-71
2021/03/13 05:27:20;;;;;;;2.20;0.47;;;8.20;99.90;;;;;;5095031;28;20210;-70
2021/03/13 05:29:46;;;;;;;2.38;1.30;;;8.20;99.90;;;;;;5094580;28;20198;-70
2021/03/13 05:32:13;;;;;;;1.52;0.77;;;8.20;99.90;;;;;;5094656;28;20579;-71
2021/03/13 05:34:39;;;;;;;1.15;0.80;;;8.20;99.90;;;;;;5095162;28;20244;-71
2021/03/13 05:37:07;;;;;;;0.95;0.43;;;8.30;99.90;;;;;;5094782;28;20233;-71
2021/03/13 05:39:33;;;;;;;0.50;0.50;;;8.30;99.90;;;;;;5094643;28;20404;-70
2021/03/13 05:42:01;;;;;;;1.45;0.60;;;8.30;99.90;;;;;;5094842;28;20232;-71
2021/03/13 05:44:28;;;;;;;1.48;0.40;;;8.40;99.90;;;;;;5095047;28;20212;-71
2021/03/13 05:46:55;;;;;;;0.50;0.50;;;8.40;99.90;;;;;;5094317;28;20196;-71
2021/03/13 05:49:23;;;;;;;1.30;0.50;;;8.40;99.90;;;;;;5095191;28;20599;-71
2021/03/13 05:51:49;;;;;;;0.68;0.60;;;8.40;99.90;;;;;;5094921;28;20313;-70
2021/03/13 05:54:18;;;;;;;0.80;0.43;;;8.40;99.90;;;;;;5094773;28;20666;-71
2021/03/13 05:56:44;;;;;;;0.70;0.50;;;8.40;99.90;;;;;;5094051;28;20652;-70
2021/03/13 05:59:12;;;;;;;1.25;0.70;;;8.50;99.90;;;;;;5096457;28;20232;-70
2021/03/13 06:01:39;;;;;;;3.25;1.17;;;8.50;99.90;;;;;;5098433;28;20658;-70
2021/03/13 06:04:05;;;;;;;1.52;0.60;;;8.50;99.90;;;;;;5098732;28;20202;-70
2021/03/13 06:06:37;;;;;;;0.90;0.55;;;8.50;99.90;;;;;;5097534;28;20243;-70
2021/03/13 06:09:04;;;;;;;0.50;0.50;;;8.60;99.90;;;;;;5098133;28;20248;-70
2021/03/13 06:11:32;;;;;;;0.93;0.50;;;8.60;99.90;;;;;;5097471;28;20244;-70
2021/03/13 06:13:58;;;;;;;0.50;0.50;;;8.60;99.90;;;;;;5098519;28;20252;-70
2021/03/13 06:16:25;;;;;;;1.40;0.55;;;8.60;99.90;;;;;;5097936;28;20609;-70
2021/03/13 06:18:57;;;;;;;0.77;0.70;;;8.60;99.90;;;;;;5097867;28;20694;-70
2021/03/13 06:21:28;;;;;;;1.55;0.70;;;8.60;99.90;;;;;;5097859;28;20194;-70
2021/03/13 06:23:59;;;;;;;1.70;0.57;;;8.70;99.90;;;;;;5097991;28;20217;-70
2021/03/13 06:26:27;;;;;;;0.50;0.50;;;8.70;99.90;;;;;;5097923;28;20289;-70
2021/03/13 06:28:57;;;;;;;1.38;0.80;;;8.70;99.90;;;;;;5098061;28;20206;-71
2021/03/13 06:31:25;;;;;;;0.75;0.75;;;8.80;99.90;;;;;;5097817;28;20213;-70
2021/03/13 06:33:51;;;;;;;0.80;0.50;;;8.80;99.90;;;;;;5097817;28;20608;-70
2021/03/13 06:36:23;;;;;;;1.55;0.75;;;8.80;99.90;;;;;;5097474;28;20296;-70
2021/03/13 06:38:49;;;;;;;0.82;0.68;;;8.90;99.90;;;;;;5098121;28;20592;-71
2021/03/13 06:41:17;;;;;;;1.50;0.45;;;8.90;99.90;;;;;;5097391;28;20209;-71
2021/03/13 06:43:45;;;;;;;0.43;0.43;;;8.90;99.90;;;;;;5097383;28;20206;-70
2021/03/13 06:46:13;;;;;;;2.13;1.13;;;8.90;99.90;;;;;;5097092;28;20206;-70
2021/03/13 06:48:42;;;;;;;0.50;0.50;;;9.00;99.90;;;;;;5097568;28;20288;-70
2021/03/13 06:51:19;;;;;;;0.45;0.40;;;9.00;99.90;;;;;;5097153;28;20198;-70
2021/03/13 06:53:58;;;;;;;1.92;0.68;;;9.10;99.90;;;;;;5097942;28;20569;-70
2021/03/13 06:56:26;;;;;;;3.85;0.70;;;9.20;99.90;;;;;;5097404;28;20204;-70
2021/03/13 06:58:53;;;;;;;1.08;0.60;;;9.30;99.90;;;;;;5097386;28;20230;-70
2021/03/13 07:01:26;;;;;;;0.63;0.50;;;9.30;99.90;;;;;;5097138;28;20343;-70
2021/03/13 07:03:53;;;;;;;1.55;0.70;;;9.30;99.90;;;;;;5097313;28;20190;-71
2021/03/13 07:06:20;;;;;;;2.50;0.50;;;9.40;99.90;;;;;;5096913;28;20204;-71
2021/03/13 07:08:47;;;;;;;0.93;0.40;;;9.40;99.90;;;;;;5097178;28;20230;-71
2021/03/13 07:11:16;;;;;;;1.13;0.60;;;9.40;99.90;;;;;;5095564;28;20238;-71
2021/03/13 07:13:44;;;;;;;1.20;0.52;;;9.50;99.90;;;;;;5097245;28;20297;-70
2021/03/13 07:16:33;;;;;;;0.80;0.60;;;9.60;99.90;;;;;;5096409;28;20198;-70
2021/03/13 07:19:02;;;;;;;1.15;0.75;;;9.70;99.90;;;;;;5096125;28;20267;-70
2021/03/13 07:21:30;;;;;;;1.45;0.70;;;9.70;99.90;;;;;;5096552;28;20257;-70
2021/03/13 07:23:59;;;;;;;0.80;0.50;;;9.70;99.90;;;;;;5096668;28;20289;-70
2021/03/13 07:26:28;;;;;;;0.52;0.30;;;9.70;99.90;;;;;;5096651;28;20297;-70
2021/03/13 07:28:58;;;;;;;0.65;0.65;;;9.60;99.90;;;;;;5096566;28;20205;-70
2021/03/13 07:31:26;;;;;;;1.40;0.60;;;9.70;99.90;;;;;;5096273;28;20647;-71
2021/03/13 07:33:58;;;;;;;0.45;0.45;;;9.70;99.90;;;;;;5095894;28;20665;-70
2021/03/13 07:36:26;;;;;;;2.85;0.65;;;9.70;99.90;;;;;;5095316;28;20209;-70
2021/03/13 07:38:58;;;;;;;0.70;0.50;;;9.70;99.80;;;;;;5095754;28;20225;-70
2021/03/13 07:41:25;;;;;;;1.55;0.75;;;9.80;99.90;;;;;;5095884;28;20198;-71
2021/03/13 07:43:53;;;;;;;0.95;0.60;;;9.90;99.90;;;;;;5095289;28;20206;-71
2021/03/13 07:46:23;;;;;;;1.08;0.70;;;10.00;99.50;;;;;;5095268;28;20545;-71
2021/03/13 07:48:49;;;;;;;0.57;0.30;;;10.10;98.70;;;;;;5095551;28;20198;-70
2021/03/13 07:51:17;;;;;;;0.60;0.55;;;10.10;98.70;;;;;;5095578;28;20202;-70
2021/03/13 07:53:44;;;;;;;0.75;0.30;;;10.20;98.00;;;;;;5095998;28;20202;-70
2021/03/13 07:56:12;;;;;;;2.63;1.60;;;10.20;97.80;;;;;;5095588;28;20255;-71
2021/03/13 07:58:39;;;;;;;0.75;0.38;;;10.30;98.00;;;;;;5095168;28;20217;-71
2021/03/13 08:01:06;;;;;;;0.50;0.38;;;10.40;96.80;;;;;;5095852;28;20218;-70
2021/03/13 08:03:48;;;;;;;0.77;0.45;;;10.50;96.30;;;;;;5095338;28;20206;-71
2021/03/13 08:06:17;;;;;;;6.63;0.75;;;10.60;96.10;;;;;;5095320;28;20205;-70
2021/03/13 08:08:45;;;;;;;0.75;0.57;;;10.60;95.80;;;;;;5095070;28;20233;-70
2021/03/13 08:11:12;;;;;;;0.40;0.40;;;10.50;95.80;;;;;;5095073;28;20335;-71
2021/03/13 08:13:57;;;;;;;0.95;0.50;;;10.50;95.70;;;;;;5095261;28;20206;-70
2021/03/13 08:16:42;;;;;;;0.40;0.35;;;10.50;95.20;;;;;;5094999;28;20292;-70
2021/03/13 08:19:37;;;;;;;0.30;0.30;;;10.40;95.00;;;;;;5095856;28;20214;-70
2021/03/13 08:22:15;;;;;;;0.45;0.40;;;10.40;95.40;;;;;;5087961;28;20226;-70
2021/03/13 08:24:43;;;;;;;1.85;0.47;;;10.40;94.90;;;;;;5095388;28;20278;-71
2021/03/13 08:27:12;;;;;;;1.42;0.50;;;10.50;94.90;;;;;;5095666;28;20292;-71
2021/03/13 08:29:52;;;;;;;0.50;0.25;;;10.50;94.60;;;;;;5095509;28;20597;-71
2021/03/13 08:33:06;;;;;;;0.40;0.20;;;10.40;94.20;;;;;;5095314;28;20696;-71
2021/03/13 08:35:56;;;;;;;0.80;0.52;;;10.40;94.20;;;;;;5095734;28;20300;-70
2021/03/13 08:38:52;;;;;;;0.68;0.40;;;10.40;93.20;;;;;;5095092;28;20214;-70
2021/03/13 08:41:46;;;;;;;0.95;0.60;;;10.40;93.60;;;;;;5095345;28;20202;-71
2021/03/13 08:44:16;;;;;;;3.08;0.68;;;10.50;92.90;;;;;;5096001;28;20277;-71
2021/03/13 08:46:47;;;;;;;0.95;0.50;;;10.50;92.70;;;;;;5095180;28;20227;-71
2021/03/13 08:49:35;;;;;;;1.02;0.57;;;10.60;92.30;;;;;;5095450;28;20185;-71
2021/03/13 08:52:25;;;;;;;3.17;1.05;;;10.80;91.50;;;;;;5095500;28;20226;-71
2021/03/13 08:54:54;;;;;;;2.17;0.65;;;10.90;90.80;;;;;;5095906;28;20191;-71
2021/03/13 08:57:44;;;;;;;1.95;0.40;;;11.00;90.50;;;;;;5095266;28;20209;-70
2021/03/13 09:00:16;;;;;;;0.70;0.57;;;11.10;90.10;;;;;;5095178;28;20244;-71
2021/03/13 09:02:45;;;;;;;0.40;0.40;;;11.20;89.70;;;;;;5094949;28;20262;-70
2021/03/13 09:05:14;;;;;;;0.50;0.50;;;11.20;90.10;;;;;;5095393;28;20568;-71
2021/03/13 09:07:45;;;;;;;0.88;0.57;;;11.30;88.30;;;;;;5094794;28;20206;-70
2021/03/13 09:10:12;;;;;;;0.50;0.50;;;11.30;87.60;;;;;;5095423;28;20208;-71
2021/03/13 09:12:40;;;;;;;0.70;0.55;;;11.30;88.10;;;;;;5094716;28;20226;-71
2021/03/13 09:15:10;;;;;;;0.45;0.45;;;11.30;86.90;;;;;;5094653;28;20605;-70
2021/03/13 09:17:37;;;;;;;1.80;0.60;;;11.30;87.00;;;;;;5093671;28;20208;-71
2021/03/13 09:20:06;;;;;;;0.50;0.50;;;11.30;86.50;;;;;;5094181;28;20282;-71
2021/03/13 09:22:33;;;;;;;0.52;0.47;;;11.30;86.20;;;;;;5094373;28;20226;-71
2021/03/13 09:25:01;;;;;;;0.85;0.40;;;11.40;86.30;;;;;;5094288;28;20544;-71
2021/03/13 09:27:30;;;;;;;0.30;0.30;;;11.50;85.80;;;;;;5095476;28;20202;-73
2021/03/13 09:29:57;;;;;;;0.50;0.40;;;11.60;86.20;;;;;;5096021;28;20289;-73
2021/03/13 09:32:25;;;;;;;2.78;1.30;;;11.70;84.10;;;;;;5095314;28;20563;-72
2021/03/13 09:34:54;;;;;;;0.60;0.50;;;11.80;84.50;;;;;;5098328;28;20228;-72
2021/03/13 09:37:22;;;;;;;0.90;0.50;;;11.80;83.10;;;;;;5098895;28;20202;-72
2021/03/13 09:39:49;;;;;;;0.40;0.30;;;11.80;82.20;;;;;;5098655;28;20705;-72
2021/03/13 09:42:19;;;;;;;0.75;0.75;;;11.90;81.70;;;;;;5099121;28;20252;-72
2021/03/13 09:44:48;;;;;;;1.00;0.63;;;11.90;81.40;;;;;;5098621;28;20259;-72
2021/03/13 09:47:16;;;;;;;0.80;0.80;;;11.90;81.40;;;;;;5098586;28;20239;-72
2021/03/13 09:49:44;;;;;;;0.65;0.40;;;11.80;81.00;;;;;;5098985;28;20209;-72
2021/03/13 09:52:11;;;;;;;0.82;0.43;;;11.80;81.50;;;;;;5098712;28;20228;-72
2021/03/13 09:54:38;;;;;;;1.10;0.60;;;11.80;81.40;;;;;;5099631;28;20198;-72
2021/03/13 09:57:12;;;;;;;0.45;0.45;;;11.80;81.70;;;;;;5099183;28;20216;-73
2021/03/13 09:59:39;;;;;;;0.65;0.50;;;12.00;81.60;;;;;;5099558;28;20281;-73
2021/03/13 10:02:07;;;;;;;0.50;0.40;;;12.10;81.40;;;;;;5099114;28;20226;-73
2021/03/13 10:04:34;;;;;;;1.75;0.47;;;12.10;82.00;;;;;;5099543;28;20293;-73
2021/03/13 10:07:01;;;;;;;1.60;0.50;;;12.10;80.60;;;;;;5099111;28;20198;-72
2021/03/13 10:09:27;;;;;;;0.50;0.50;;;12.00;81.40;;;;;;5099254;28;20289;-72
2021/03/13 10:11:59;;;;;;;1.38;0.45;;;11.90;81.90;;;;;;5099128;28;20229;-73
2021/03/13 10:14:25;;;;;;;0.40;0.40;;;11.80;82.00;;;;;;5098739;28;20295;-73
2021/03/13 10:16:59;;;;;;;0.75;0.30;;;11.70;81.90;;;;;;5098240;28;20213;-72
2021/03/13 10:19:37;;;;;;;0.40;0.40;;;11.80;82.30;;;;;;5098819;28;20259;-73
2021/03/13 10:22:12;;;;;;;1.15;0.77;;;11.70;82.00;;;;;;5098666;28;20221;-72
2021/03/13 10:24:53;;;;;;;0.60;0.47;;;11.70;82.50;;;;;;5098680;28;20198;-73
2021/03/13 10:27:24;;;;;;;1.13;0.50;;;11.70;82.40;;;;;;5099300;28;20293;-72
2021/03/13 10:29:56;;;;;;;0.75;0.57;;;11.70;83.50;;;;;;5099027;28;20198;-73
2021/03/13 10:32:27;;;;;;;0.50;0.32;;;11.80;82.60;;;;;;5098962;28;20228;-73
2021/03/13 10:35:12;;;;;;;2.05;0.50;;;11.80;82.40;;;;;;5099619;28;20557;-73
2021/03/13 10:37:41;;;;;;;0.60;0.43;;;11.80;83.00;;;;;;5098655;28;20285;-72
2021/03/13 10:40:08;;;;;;;0.68;0.40;;;11.80;82.70;;;;;;5098692;28;20199;-73
2021/03/13 10:42:35;;;;;;;0.50;0.40;;;11.80;82.40;;;;;;5097919;28;20218;-72
2021/03/13 10:45:17;;;;;;;0.40;0.30;;;11.80;82.60;;;;;;5097239;28;20210;-73
2021/03/13 10:47:45;;;;;;;0.75;0.47;;;11.80;83.10;;;;;;5097607;28;20209;-72
2021/03/13 10:50:13;;;;;;;0.50;0.40;;;11.80;82.60;;;;;;5095653;28;20298;-73
2021/03/13 10:52:40;;;;;;;4.22;0.50;;;11.80;82.40;;;;;;5088090;28;20223;-73
2021/03/13 10:55:08;;;;;;;1.25;0.40;;;11.80;83.10;;;;;;5077996;28;20263;-73
2021/03/13 10:57:35;;;;;;;0.80;0.50;;;11.80;82.50;;;;;;5077381;28;20218;-73
2021/03/13 11:00:05;;;;;;;0.45;0.30;;;11.80;82.20;;;;;;5077444;28;20313;-73
2021/03/13 11:02:31;;;;;;;0.85;0.40;;;11.80;82.00;;;;;;5077534;28;20250;-73
2021/03/13 11:04:58;;;;;;;1.25;0.40;;;11.80;82.00;;;;;;5076968;28;20328;-73
2021/03/13 11:07:25;;;;;;;0.63;0.40;;;11.80;82.00;;;;;;5077244;28;20683;-73
2021/03/13 11:09:51;;;;;;;0.55;0.38;;;11.80;80.70;;;;;;5077346;28;20286;-73
2021/03/13 11:12:17;;;;;;;0.50;0.50;;;11.90;80.90;;;;;;5077337;28;20309;-73
2021/03/13 11:14:44;;;;;;;0.50;0.50;;;11.80;80.30;;;;;;5076837;28;20220;-73
2021/03/13 11:17:10;;;;;;;5.57;0.60;;;11.90;80.90;;;;;;5076820;28;20203;-73
2021/03/13 11:19:36;;;;;;;0.50;0.40;;;11.90;79.90;;;;;;5076773;28;20225;-73
2021/03/13 11:22:09;;;;;;;0.63;0.63;;;11.90;79.80;;;;;;5077159;28;20322;-73
2021/03/13 11:24:38;;;;;;;0.55;0.50;;;11.90;79.70;;;;;;5076578;28;20203;-73
2021/03/13 11:27:05;;;;;;;0.65;0.30;;;11.90;80.00;;;;;;5077107;28;20294;-73
2021/03/13 11:29:31;;;;;;;3.72;0.90;;;12.00;79.90;;;;;;5077855;28;20290;-74
2021/03/13 11:31:58;;;;;;;1.30;0.73;;;12.10;79.50;;;;;;5078209;28;20637;-73
2021/03/13 11:34:24;;;;;;;0.80;0.80;;;12.10;79.00;;;;;;5076801;28;20202;-76
2021/03/13 11:36:51;;;;;;;0.70;0.52;;;12.10;78.40;;;;;;5077390;28;20301;-76
2021/03/13 11:39:17;;;;;;;0.68;0.47;;;12.10;79.30;;;;;;5075329;28;20219;-76
2021/03/13 11:41:45;;;;;;;0.55;0.38;;;12.20;78.40;;;;;;5074299;28;20564;-76
2021/03/13 11:44:11;;;;;;;0.50;0.50;;;12.10;78.20;;;;;;5073684;28;20336;-76
2021/03/13 11:46:38;;;;;;;1.00;0.40;;;12.10;78.10;;;;;;5073628;28;20203;-76
2021/03/13 11:49:04;;;;;;;0.40;0.40;;;12.20;78.60;;;;;;5074190;28;20204;-76
2021/03/13 11:51:31;;;;;;;0.50;0.40;;;12.30;78.00;;;;;;5073727;28;20628;-75
2021/03/13 11:53:57;;;;;;;2.58;0.50;;;12.30;77.40;;;;;;5073771;28;20209;-76
2021/03/13 11:56:23;;;;;;;0.40;0.40;;;12.30;77.60;;;;;;5072602;28;20297;-76
2021/03/13 11:58:50;;;;;;;1.50;0.40;;;12.40;77.40;;;;;;5075132;28;20657;-77
2021/03/13 12:01:18;;;;;;;0.40;0.40;;;12.50;77.30;;;;;;5076216;28;20209;-76
2021/03/13 12:03:44;;;;;;;1.13;0.30;;;12.50;76.70;;;;;;5073651;28;20202;-77
2021/03/13 12:06:11;;;;;;;0.50;0.50;;;12.40;76.40;;;;;;5073396;28;20291;-76
2021/03/13 12:08:37;;;;;;;0.52;0.40;;;12.40;76.30;;;;;;5073521;28;20285;-76
2021/03/13 12:11:03;;;;;;;0.55;0.50;;;12.30;76.90;;;;;;5073137;28;20248;-76
2021/03/13 12:13:30;;;;;;;0.30;0.30;;;12.30;77.70;;;;;;5073317;28;20259;-76
2021/03/13 12:15:57;;;;;;;0.60;0.40;;;12.20;77.90;;;;;;5073269;28;20576;-74
2021/03/13 12:18:23;;;;;;;0.43;0.43;;;12.20;79.60;;;;;;5074852;28;20222;-72
2021/03/13 12:20:49;;;;;;;0.50;0.50;;;12.10;80.70;;;;;;5073036;28;20202;-75
2021/03/13 12:23:16;;;;;;;2.45;1.33;;;12.20;82.40;;;;;;5073717;28;20318;-74
2021/03/13 12:25:42;;;;;;;0.63;0.47;;;12.10;82.10;;;;;;5073308;28;20285;-74
2021/03/13 12:28:08;;;;;;;1.40;0.40;;;12.20;83.10;;;;;;5073137;28;20203;-74
2021/03/13 12:30:35;;;;;;;0.75;0.60;;;12.20;83.60;;;;;;5073144;28;20237;-73
2021/03/13 12:33:02;;;;;;;0.70;0.32;;;12.20;84.30;;;;;;5073188;28;20221;-74
2021/03/13 12:35:28;;;;;;;1.40;0.50;;;12.10;85.80;;;;;;5073574;28;20210;-73
2021/03/13 12:37:55;;;;;;;0.90;0.40;;;12.00;85.40;;;;;;5072848;28;20209;-74
2021/03/13 12:40:21;;;;;;;1.95;0.40;;;12.10;86.50;;;;;;5073329;28;20661;-74
2021/03/13 12:42:47;;;;;;;0.40;0.40;;;12.10;87.00;;;;;;5074103;28;20261;-74
2021/03/13 12:45:14;;;;;;;0.40;0.40;;;12.10;88.20;;;;;;5072530;28;20236;-75
2021/03/13 12:47:40;;;;;;;0.40;0.40;;;12.10;88.10;;;;;;5073867;28;20668;-73
2021/03/13 12:50:09;;;;;;;1.98;0.40;;;12.20;88.40;;;;;;5074079;28;20195;-72
2021/03/13 12:52:35;;;;;;;0.50;0.50;;;12.30;88.10;;;;;;5073880;28;20222;-73
2021/03/13 12:55:02;;;;;;;0.30;0.30;;;12.20;88.10;;;;;;5073743;28;20546;-73
2021/03/13 12:57:29;;;;;;;0.90;0.50;;;12.20;89.00;;;;;;5073932;28;20214;-72
2021/03/13 12:59:55;;;;;;;0.55;0.50;;;12.20;89.70;;;;;;5074339;28;20325;-72
2021/03/13 13:02:21;;;;;;;0.60;0.60;;;12.00;90.70;;;;;;5073752;28;20717;-73